Time;durP1;ratioP1;P1;durP2;ratioP2;P2;SDS_P1;SDS_P2;PMS_P1;PMS_P2;Temp;Humidity;BMP_temperature;BMP_pressure;BME280_temperature;BME280_humidity;BME280_pressure;Samples;Min_cycle;Max_cycle;Signal;HPM_P1;HPM_P2
2022/08/18 00:01:16;;;;;;;6.97;6.28;;;22.20;99.90;;;-141.84;50.95;21738.97;4878783;29;20239;-53
2022/08/18 00:03:47;;;;;;;7.15;5.18;;;22.30;99.90;;;-141.84;51.22;21793.84;4879459;29;20231;-51
2022/08/18 00:06:27;;;;;;;6.75;5.47;;;22.40;99.90;;;-141.84;51.77;21775.56;4879052;29;20255;-48
2022/08/18 00:08:58;;;;;;;6.47;5.70;;;22.40;99.90;;;-141.84;51.85;21757.25;4879421;29;20671;-50
2022/08/18 00:11:27;;;;;;;7.78;5.30;;;22.40;99.90;;;-141.84;51.73;21751.16;4860648;29;20217;-50
2022/08/18 00:14:12;;;;;;;6.55;5.95;;;22.40;99.90;;;-141.84;51.34;21773.53;4877001;29;20239;-49
2022/08/18 00:16:53;;;;;;;7.13;5.60;;;22.40;99.90;;;-141.84;50.81;21810.13;4878814;29;20234;-48
2022/08/18 00:19:24;;;;;;;5.88;5.40;;;22.50;99.90;;;-141.84;50.08;21818.25;4879007;29;20944;-47
2022/08/18 00:22:15;;;;;;;6.57;5.97;;;22.60;99.90;;;-141.84;50.26;21793.84;4878989;29;20231;-49
2022/08/18 00:24:45;;;;;;;6.13;5.22;;;22.60;99.90;;;-141.84;51.03;21820.28;4878848;29;20374;-49
2022/08/18 00:27:16;;;;;;;6.10;5.30;;;22.70;99.90;;;-141.84;51.21;21791.81;4878985;29;20191;-47
2022/08/18 00:29:44;;;;;;;6.30;5.80;;;22.50;99.90;;;-141.84;51.10;21806.06;4878989;29;20573;-50
2022/08/18 00:32:14;;;;;;;6.63;5.90;;;22.50;99.90;;;-141.84;50.83;21777.59;4878637;29;20235;-48
2022/08/18 00:34:43;;;;;;;6.75;6.03;;;22.50;99.90;;;-141.84;51.07;21773.53;4878511;29;20711;-53
2022/08/18 00:37:11;;;;;;;6.78;6.18;;;22.50;99.90;;;-141.84;50.77;21793.84;4878581;29;20263;-49
2022/08/18 00:39:39;;;;;;;6.97;6.40;;;22.50;99.90;;;-141.84;50.98;21773.53;4878208;29;20711;-52
2022/08/18 00:42:17;;;;;;;5.97;5.55;;;22.50;99.90;;;-141.84;51.42;21749.13;4878546;29;20230;-45
2022/08/18 00:45:02;;;;;;;6.68;6.07;;;22.50;99.90;;;-141.84;51.99;21808.09;4879099;29;20218;-48
2022/08/18 00:47:31;;;;;;;6.30;5.80;;;22.50;99.90;;;-141.84;52.37;21743.03;4859642;29;20594;-49
2022/08/18 00:50:15;;;;;;;7.35;6.38;;;22.40;99.90;;;-141.84;52.58;21712.53;4876426;29;20318;-47
2022/08/18 00:52:55;;;;;;;6.70;6.10;;;22.30;99.90;;;-141.84;52.85;21724.72;4877360;29;20314;-49
2022/08/18 00:55:26;;;;;;;7.10;6.50;;;22.30;99.90;;;-141.84;52.72;21724.72;4878336;29;20237;-52
2022/08/18 00:58:01;;;;;;;6.40;5.90;;;22.20;99.90;;;-141.84;53.44;21690.16;4878404;29;20228;-49
2022/08/18 01:00:29;;;;;;;7.05;6.35;;;22.10;99.90;;;-141.84;53.64;21647.47;4878557;29;20325;-52
2022/08/18 01:03:04;;;;;;;6.93;6.30;;;22.10;99.90;;;-141.84;54.60;21657.63;4878810;29;20275;-48
2022/08/18 01:05:41;;;;;;;6.55;5.95;;;21.90;99.90;;;-141.84;54.25;21602.72;4878633;29;20331;-52
2022/08/18 01:08:15;;;;;;;7.20;6.20;;;21.90;99.90;;;-141.84;54.24;21625.09;4878072;29;20739;-48
2022/08/18 01:10:45;;;;;;;6.82;6.22;;;21.80;99.90;;;-141.84;54.45;21659.66;4878351;29;20326;-52
2022/08/18 01:13:13;;;;;;;7.45;5.80;;;21.80;99.90;;;-141.84;54.56;21592.56;4878241;29;20322;-49
2022/08/18 01:15:42;;;;;;;6.88;6.28;;;21.80;99.90;;;-141.84;54.97;21590.53;4878352;29;20226;-49
2022/08/18 01:24:03;;;;;;;6.75;6.15;;;21.60;99.90;;;-141.84;54.38;21623.06;4878646;29;20207;-47
2022/08/18 01:26:36;;;;;;;7.00;6.40;;;21.70;99.90;;;-141.84;55.14;21594.59;4878580;29;20686;-51
2022/08/18 01:29:11;;;;;;;7.88;6.68;;;21.60;99.90;;;-141.84;55.31;21574.25;4878219;29;20234;-49
2022/08/18 01:31:54;;;;;;;7.05;6.45;;;21.60;99.90;;;-141.84;54.99;21558.00;4878066;29;20239;-49
2022/08/18 01:34:27;;;;;;;7.28;6.57;;;21.50;99.90;;;-141.84;54.67;21639.31;4878099;29;20279;-47
2022/08/18 01:36:56;;;;;;;7.13;6.43;;;21.50;99.90;;;-141.84;54.78;21600.69;4878177;29;20243;-51
2022/08/18 01:39:26;;;;;;;6.75;6.18;;;21.60;99.90;;;-141.84;54.81;21614.94;4877866;29;20251;-49
2022/08/18 01:42:17;;;;;;;6.95;6.30;;;21.60;99.90;;;-141.84;54.82;21547.81;4878017;29;20219;-51
2022/08/18 01:44:47;;;;;;;6.90;6.30;;;21.60;99.90;;;-141.84;55.57;21531.56;4878677;29;20196;-50
2022/08/18 01:47:17;;;;;;;7.13;6.53;;;21.50;99.90;;;-141.84;55.35;21558.00;4877718;29;20229;-51
2022/08/18 01:49:45;;;;;;;8.45;6.90;;;21.40;99.90;;;-141.84;55.78;21553.94;4878020;29;20237;-50
2022/08/18 01:52:19;;;;;;;6.65;6.13;;;21.40;99.90;;;-141.84;56.04;21527.50;4877932;29;20262;-50
2022/08/18 01:54:49;;;;;;;6.47;5.97;;;21.40;99.90;;;-141.84;56.48;21505.13;4877935;29;20783;-48
2022/08/18 01:57:21;;;;;;;6.80;6.20;;;21.30;99.90;;;-141.84;56.93;21478.69;4877895;29;20192;-48
2022/08/18 01:59:50;;;;;;;6.53;6.03;;;21.30;99.90;;;-141.84;57.10;21505.13;4878653;29;20198;-50
2022/08/18 02:02:24;;;;;;;7.30;6.22;;;21.30;99.90;;;-141.84;57.36;21525.47;4877537;29;20231;-53
2022/08/18 02:05:01;;;;;;;7.32;6.72;;;21.30;99.90;;;-141.84;57.67;21503.09;4881251;29;20611;-49
2022/08/18 02:07:29;;;;;;;6.65;6.07;;;21.30;99.90;;;-141.84;57.88;21492.94;4881115;29;20231;-52
2022/08/18 02:10:07;;;;;;;6.93;6.28;;;21.20;99.90;;;-141.84;57.80;21472.59;4881256;29;20231;-47
2022/08/18 02:12:40;;;;;;;6.72;6.13;;;21.20;99.90;;;-141.84;57.53;21484.78;4881242;29;20251;-47
2022/08/18 02:15:10;;;;;;;7.60;6.93;;;21.20;99.90;;;-141.84;57.54;21490.91;4881182;29;20740;-49
2022/08/18 02:17:40;;;;;;;6.80;6.22;;;21.20;99.90;;;-141.84;57.46;21488.88;4881248;29;20302;-50
2022/08/18 02:20:11;;;;;;;7.22;6.47;;;21.10;99.90;;;-141.84;57.74;21440.06;4881026;29;20235;-46
2022/08/18 02:22:40;;;;;;;6.80;6.20;;;21.10;99.90;;;-141.84;58.32;21413.63;4881002;29;20243;-46
2022/08/18 02:25:11;;;;;;;7.53;6.40;;;21.10;99.90;;;-141.84;58.01;21482.75;4880776;29;20802;-51
2022/08/18 02:27:39;;;;;;;6.80;6.20;;;21.10;99.90;;;-141.84;58.29;21436.00;4880803;29;20318;-48
2022/08/18 02:30:13;;;;;;;6.85;6.25;;;21.10;99.90;;;-141.84;58.23;21497.00;4880579;29;20208;-49
2022/08/18 02:32:42;;;;;;;7.28;6.68;;;21.00;99.90;;;-141.84;58.07;21460.41;4881235;29;20633;-48
2022/08/18 02:35:11;;;;;;;7.57;6.88;;;21.00;99.90;;;-141.84;58.02;21480.72;4880636;29;20250;-50
2022/08/18 02:37:40;;;;;;;7.65;6.68;;;21.00;99.90;;;-141.84;58.54;21472.59;4880608;29;20314;-47
2022/08/18 02:40:12;;;;;;;7.55;6.72;;;21.00;99.90;;;-141.84;58.61;21419.72;4880498;29;20239;-51
2022/08/18 02:42:43;;;;;;;7.13;6.43;;;20.90;99.90;;;-141.84;58.59;21423.81;4880634;29;20251;-49
2022/08/18 02:45:12;;;;;;;7.50;6.80;;;20.90;99.90;;;-141.84;58.18;21417.69;4880419;29;20695;-51
2022/08/18 02:47:41;;;;;;;7.32;6.57;;;20.90;99.90;;;-141.84;58.56;21446.16;4880796;29;20568;-50
2022/08/18 02:50:12;;;;;;;7.65;7.05;;;20.90;99.90;;;-141.84;58.28;21452.25;4880438;29;20599;-50
2022/08/18 02:52:40;;;;;;;7.50;6.80;;;20.90;99.90;;;-141.84;58.73;21444.13;4880404;29;20231;-49
2022/08/18 02:55:11;;;;;;;8.90;6.13;;;21.00;99.90;;;-141.84;58.68;21427.88;4879960;29;20597;-50
2022/08/18 02:57:42;;;;;;;7.97;7.05;;;20.90;99.90;;;-141.84;58.44;21415.66;4880094;29;20255;-51
2022/08/18 03:00:14;;;;;;;8.13;6.78;;;20.90;99.90;;;-141.84;58.18;21452.25;4880426;29;20214;-49
2022/08/18 03:02:46;;;;;;;8.05;6.57;;;21.00;99.90;;;-141.84;58.31;21448.19;4880638;29;20298;-51
2022/08/18 03:05:16;;;;;;;9.50;6.90;;;21.00;99.90;;;-141.84;58.49;21446.16;4879746;29;20314;-51
2022/08/18 03:07:44;;;;;;;8.55;7.63;;;21.00;99.90;;;-141.84;58.11;21446.16;4879855;29;20231;-48
2022/08/18 03:10:15;;;;;;;7.70;6.90;;;21.00;99.90;;;-141.84;58.37;21429.91;4880126;29;20263;-52
2022/08/18 03:13:00;;;;;;;7.38;6.78;;;21.00;99.90;;;-141.84;58.11;21456.34;4880066;29;20319;-48
2022/08/18 03:15:29;;;;;;;10.32;7.03;;;21.00;99.90;;;-141.84;57.88;21499.03;4879130;29;20322;-48
2022/08/18 03:17:57;;;;;;;7.00;6.32;;;21.00;99.90;;;-141.84;58.36;21442.09;4880643;29;20206;-52
2022/08/18 03:20:26;;;;;;;7.43;6.72;;;21.00;99.90;;;-141.84;58.77;21440.06;4861134;29;20720;-50
2022/08/18 03:22:59;;;;;;;8.60;6.50;;;21.00;99.90;;;-141.84;58.71;21442.09;4876354;29;20741;-49
2022/08/18 03:25:45;;;;;;;7.25;6.55;;;21.00;99.90;;;-141.84;58.74;21423.81;4879894;29;20644;-50
2022/08/18 03:28:15;;;;;;;9.48;6.78;;;21.00;99.90;;;-141.84;58.51;21425.84;4879554;29;20721;-52
2022/08/18 03:30:43;;;;;;;7.32;6.63;;;20.90;99.90;;;-141.84;58.25;21429.91;4879807;29;20224;-48
2022/08/18 03:33:12;;;;;;;9.73;7.30;;;20.90;99.90;;;-141.84;57.64;21472.59;4879796;29;20362;-50
2022/08/18 03:35:40;;;;;;;6.20;5.70;;;21.00;99.90;;;-141.84;57.53;21427.88;4880199;29;20209;-51
2022/08/18 03:38:09;;;;;;;6.57;5.97;;;21.00;99.90;;;-141.84;58.09;21427.88;4879332;29;20231;-52
2022/08/18 03:40:38;;;;;;;6.57;5.70;;;20.90;99.90;;;-141.84;58.27;21393.31;4879400;29;20343;-51
2022/08/18 03:43:07;;;;;;;8.20;5.78;;;20.90;99.90;;;-141.84;58.45;21372.97;4879710;29;20226;-49
2022/08/18 03:45:55;;;;;;;6.15;5.55;;;20.80;99.90;;;-141.84;58.23;21364.84;4879384;29;20635;-51
2022/08/18 03:48:24;;;;;;;6.47;5.78;;;20.80;99.90;;;-141.84;57.81;21358.75;4879366;29;20573;-51
2022/08/18 03:50:52;;;;;;;6.45;5.68;;;20.80;99.90;;;-141.84;57.59;21370.94;4879735;29;20236;-51
2022/08/18 03:53:20;;;;;;;6.82;6.05;;;20.80;99.90;;;-141.84;57.06;21397.38;4879339;29;20743;-51
2022/08/18 03:55:49;;;;;;;6.15;5.55;;;20.80;99.90;;;-141.84;57.29;21381.09;4879232;29;20819;-51
2022/08/18 03:58:18;;;;;;;6.68;5.93;;;20.80;99.90;;;-141.84;57.59;21375.00;4879157;29;20235;-49
2022/08/18 04:00:46;;;;;;;6.50;5.90;;;20.80;99.90;;;-141.84;57.41;21379.06;4879154;29;20327;-52
2022/08/18 04:03:14;;;;;;;6.32;5.82;;;20.70;99.90;;;-141.84;58.03;21360.78;4879503;29;20207;-48
2022/08/18 04:05:42;;;;;;;7.43;6.00;;;20.70;99.90;;;-141.84;57.49;21375.00;4879533;29;20298;-50
2022/08/18 04:08:12;;;;;;;6.43;5.82;;;20.70;99.90;;;-141.84;57.90;21393.31;4878813;29;20237;-49
2022/08/18 04:10:43;;;;;;;6.32;5.72;;;20.70;99.90;;;-141.84;57.92;21368.91;4879019;29;20233;-51
2022/08/18 04:13:12;;;;;;;8.30;5.80;;;20.70;99.90;;;-141.84;57.78;21423.81;4879241;29;20227;-50
2022/08/18 04:15:40;;;;;;;6.22;5.53;;;20.80;99.90;;;-141.84;57.71;21403.47;4879000;29;20230;-53
2022/08/18 04:18:08;;;;;;;10.85;5.60;;;20.80;99.90;;;-141.84;57.69;21421.75;4879071;29;20231;-48
2022/08/18 04:20:37;;;;;;;6.00;5.50;;;20.80;99.90;;;-141.84;57.22;21415.66;4879410;29;20304;-50
2022/08/18 04:23:22;;;;;;;8.30;6.85;;;20.80;99.90;;;-141.84;57.07;21425.84;4878804;29;20258;-52
2022/08/18 04:25:57;;;;;;;7.13;5.80;;;20.80;99.90;;;-141.84;57.44;21440.06;4878372;29;20795;-50
2022/08/18 04:28:28;;;;;;;6.63;6.03;;;20.80;99.90;;;-141.84;57.60;21370.94;4878824;29;20737;-53
2022/08/18 04:30:58;;;;;;;6.63;5.63;;;20.80;99.90;;;-141.84;57.95;21393.31;4878604;29;20683;-51
2022/08/18 04:33:27;;;;;;;6.28;5.72;;;20.80;99.90;;;-141.84;57.92;21379.06;4878574;29;20746;-52
2022/08/18 04:35:56;;;;;;;8.82;5.55;;;20.80;99.90;;;-141.84;57.95;21442.09;4878991;29;20215;-50
2022/08/18 04:38:24;;;;;;;5.80;5.18;;;20.80;99.90;;;-141.84;57.96;21405.50;4878305;29;20239;-52
2022/08/18 04:40:52;;;;;;;9.30;5.88;;;20.90;99.90;;;-141.84;57.64;21438.03;4878491;29;20231;-51
2022/08/18 04:43:20;;;;;;;6.60;6.00;;;20.90;99.90;;;-141.84;57.78;21440.06;4878060;29;20265;-49
2022/08/18 04:45:50;;;;;;;6.93;5.90;;;21.00;99.90;;;-141.84;57.53;21431.94;4877752;29;20231;-51
2022/08/18 04:48:18;;;;;;;10.32;6.35;;;21.00;99.90;;;-141.84;57.19;21466.50;4878012;29;20285;-46
2022/08/18 04:50:49;;;;;;;7.55;6.00;;;21.10;99.90;;;-141.84;56.42;21488.88;4879010;29;20251;-51
2022/08/18 04:56:03;;;;;;;10.30;6.75;;;21.30;99.90;;;-141.84;53.63;21614.94;4878323;29;20261;-51
2022/08/18 04:58:32;;;;;;;7.72;6.78;;;21.30;99.90;;;-141.84;52.25;21637.28;4878588;29;20261;-51
2022/08/18 05:01:01;;;;;;;7.97;6.13;;;21.60;99.90;;;-141.84;51.69;21616.97;4878140;29;20259;-50
2022/08/18 05:03:30;;;;;;;8.57;6.50;;;21.70;99.90;;;-141.84;52.49;21639.31;4878493;29;20330;-52
2022/08/18 05:05:59;;;;;;;8.13;6.53;;;21.70;99.90;;;-141.84;52.70;21614.94;4878521;29;20747;-52
2022/08/18 05:08:27;;;;;;;9.43;8.38;;;21.80;99.90;;;-141.84;51.97;21653.56;4859945;29;20232;-48
2022/08/18 05:10:58;;;;;;;8.18;7.47;;;21.90;99.90;;;-141.84;52.23;21684.06;4874415;29;20231;-51
2022/08/18 05:13:31;;;;;;;7.28;6.43;;;22.00;99.90;;;-141.84;51.49;21714.56;4878057;29;20707;-48
2022/08/18 05:16:02;;;;;;;6.85;5.80;;;22.00;99.90;;;-141.84;50.41;21753.19;4878213;29;20241;-49
2022/08/18 05:18:52;;;;;;;6.60;5.88;;;22.20;99.90;;;-141.84;51.08;21728.78;4878305;29;20231;-48
2022/08/18 05:21:21;;;;;;;9.27;6.32;;;22.30;99.90;;;-141.84;49.67;21789.78;4878274;29;20239;-50
2022/08/18 05:23:51;;;;;;;6.55;5.95;;;22.40;99.90;;;-141.84;49.22;21822.31;4878753;29;20211;-50
2022/08/18 05:26:20;;;;;;;7.68;6.05;;;22.50;99.90;;;-141.84;49.00;21856.91;4878023;29;20318;-50
2022/08/18 05:28:48;;;;;;;6.82;6.20;;;22.60;99.90;;;-141.84;49.69;21834.53;4877978;29;20231;-48
2022/08/18 05:31:29;;;;;;;6.93;5.57;;;22.70;99.90;;;-141.84;49.55;21836.56;4877556;29;20231;-51
2022/08/18 05:34:00;;;;;;;8.27;6.43;;;22.80;99.90;;;-141.84;49.55;21846.72;4877901;29;20231;-48
2022/08/18 05:36:57;;;;;;;9.25;7.53;;;22.80;99.90;;;-141.84;48.95;21901.63;4877705;29;20223;-49
2022/08/18 05:39:32;;;;;;;9.77;7.63;;;22.90;99.90;;;-141.84;48.38;21946.38;4881024;29;20310;-46
2022/08/18 05:42:08;;;;;;;8.88;7.03;;;22.90;99.90;;;-141.84;48.61;21901.63;4881484;29;20285;-51
2022/08/18 05:44:41;;;;;;;7.82;6.30;;;23.00;99.90;;;-141.84;49.00;21936.19;4882254;29;20617;-49
2022/08/18 05:47:25;;;;;;;8.88;6.65;;;23.00;99.90;;;-141.84;48.36;21952.47;4881600;29;20233;-46
2022/08/18 05:49:56;;;;;;;7.00;6.35;;;23.10;99.90;;;-141.84;48.69;21966.69;4881480;29;20652;-50
2022/08/18 05:52:33;;;;;;;7.53;6.50;;;23.10;99.90;;;-141.84;48.12;22033.81;4881478;29;20235;-51
2022/08/18 05:58:01;;;;;;;7.72;6.95;;;23.30;99.90;;;-141.84;48.10;22050.06;4880245;29;20239;-51
2022/08/18 06:00:31;;;;;;;10.43;7.45;;;23.40;99.90;;;-141.84;47.92;22066.34;4881445;29;20234;-50
2022/08/18 06:03:12;;;;;;;7.93;7.13;;;23.50;99.90;;;-141.84;47.89;22050.06;4880728;29;20191;-53
2022/08/18 06:05:52;;;;;;;8.65;7.85;;;23.60;99.90;;;-141.84;47.71;22098.88;4881586;29;20698;-49
2022/08/18 06:08:29;;;;;;;10.07;7.90;;;23.70;99.90;;;-141.84;47.48;22137.50;4880776;29;20322;-48
2022/08/18 06:10:57;;;;;;;11.30;7.85;;;23.90;99.90;;;-141.84;47.66;22113.13;4881320;29;20227;-50
2022/08/18 06:13:25;;;;;;;12.57;7.75;;;23.90;99.90;;;-141.84;47.26;22190.38;4880745;29;20302;-53
2022/08/18 06:16:09;;;;;;;9.20;7.47;;;24.10;99.90;;;-141.84;47.08;22210.72;4880913;29;20231;-49
2022/08/18 06:18:53;;;;;;;11.00;8.07;;;24.10;99.90;;;-141.84;46.67;22265.63;4880905;29;20227;-49
2022/08/18 06:21:49;;;;;;;8.43;7.53;;;24.30;99.90;;;-141.84;46.81;22224.97;4881150;29;20231;-49
2022/08/18 06:24:31;;;;;;;8.45;7.43;;;24.40;99.90;;;-141.84;46.71;22265.63;4880996;29;20188;-49
2022/08/18 06:27:11;;;;;;;8.02;7.32;;;24.40;99.90;;;-141.84;46.95;22275.81;4881438;29;20614;-48
2022/08/18 06:30:03;;;;;;;8.32;7.53;;;24.50;99.90;;;-141.84;46.73;22298.16;4881166;29;20754;-50
2022/08/18 06:32:52;;;;;;;7.55;6.85;;;24.60;99.90;;;-141.84;47.26;22294.09;4879523;29;20243;-51
2022/08/18 06:35:35;;;;;;;9.73;8.60;;;24.60;99.90;;;-141.84;47.46;22269.69;4880570;29;20232;-50
2022/08/18 06:38:40;;;;;;;10.35;8.65;;;24.60;99.90;;;-141.84;47.72;22296.13;4880549;29;20322;-50
2022/08/18 06:41:18;;;;;;;8.07;7.28;;;24.70;99.90;;;-141.84;48.11;22271.72;4876102;29;20227;-51
2022/08/18 06:44:10;;;;;;;9.77;8.77;;;24.70;99.90;;;-141.84;47.93;22312.41;4868449;29;20235;-51
2022/08/18 06:46:48;;;;;;;11.90;8.93;;;24.80;99.90;;;-141.84;47.85;22353.09;4860580;29;20236;-49
2022/08/18 06:49:38;;;;;;;11.70;9.70;;;24.90;99.90;;;-141.84;47.62;22353.09;4874734;29;20228;-49
2022/08/18 06:52:28;;;;;;;13.77;10.05;;;25.00;99.90;;;-141.84;48.22;22312.41;4879271;29;20377;-50
2022/08/18 06:55:00;;;;;;;10.77;9.77;;;24.90;99.90;;;-141.84;48.09;22285.97;4879091;29;20727;-52
2022/08/18 06:57:34;;;;;;;11.93;10.68;;;24.80;99.90;;;-141.84;48.66;22302.25;4879102;29;20722;-51
2022/08/18 07:00:10;;;;;;;12.77;9.45;;;24.70;99.90;;;-141.84;48.98;22239.19;4879613;29;20334;-50
2022/08/18 07:02:52;;;;;;;10.63;9.52;;;24.60;99.90;;;-141.84;48.57;22290.03;4879889;29;20557;-50
2022/08/18 07:05:26;;;;;;;13.27;10.95;;;24.60;99.90;;;-141.84;48.19;22338.84;4879115;29;20231;-51
2022/08/18 07:08:20;;;;;;;12.00;10.75;;;24.80;99.90;;;-141.84;48.15;22336.81;4879188;29;20314;-52
2022/08/18 07:10:52;;;;;;;14.60;10.98;;;24.80;99.90;;;-141.84;47.91;22391.72;4878394;29;20318;-53
2022/08/18 07:13:27;;;;;;;13.27;11.90;;;25.00;99.90;;;-141.84;48.24;22365.28;4878955;29;20261;-48
2022/08/18 07:16:20;;;;;;;15.68;10.90;;;25.00;99.90;;;-141.84;47.73;22434.44;4879014;29;20613;-54
2022/08/18 07:19:08;;;;;;;12.38;11.07;;;25.20;99.90;;;-141.84;47.50;22507.66;4879090;29;20235;-49
2022/08/18 07:21:39;;;;;;;13.88;12.00;;;25.30;99.90;;;-141.84;47.19;22515.78;4879035;29;20318;-48
2022/08/18 07:24:18;;;;;;;14.55;12.15;;;25.40;99.90;;;-141.84;47.16;22534.09;4878532;29;20283;-51
2022/08/18 07:27:03;;;;;;;12.45;11.30;;;25.50;99.90;;;-141.84;47.79;22456.81;4879448;29;20198;-50
2022/08/18 07:29:34;;;;;;;13.98;11.70;;;25.40;99.90;;;-141.84;47.84;22430.38;4879019;29;20237;-48
2022/08/18 07:32:10;;;;;;;16.35;12.20;;;25.30;99.90;;;-141.84;48.46;22389.69;4878614;29;20318;-47
2022/08/18 07:34:57;;;;;;;18.10;14.77;;;25.00;99.90;;;-141.84;48.57;22385.63;4878629;29;20313;-49
2022/08/18 07:37:33;;;;;;;14.73;12.95;;;25.00;99.90;;;-141.84;48.91;22353.09;4878826;29;20492;-46
2022/08/18 07:40:12;;;;;;;16.40;13.35;;;24.90;99.90;;;-141.84;49.21;22326.66;4878328;29;20689;-52
2022/08/18 07:42:49;;;;;;;15.27;12.30;;;24.80;99.90;;;-141.84;49.46;22320.53;4878786;29;20606;-51
2022/08/18 07:45:35;;;;;;;12.65;11.35;;;24.80;99.90;;;-141.84;49.22;22322.56;4878751;29;20226;-51
2022/08/18 07:48:12;;;;;;;16.45;12.90;;;24.80;99.90;;;-141.84;48.50;22389.69;4878438;29;20221;-49
2022/08/18 07:51:12;;;;;;;13.82;12.38;;;24.90;99.90;;;-141.84;48.22;22403.94;4878708;29;20196;-51
2022/08/18 07:53:56;;;;;;;13.07;10.68;;;25.10;99.90;;;-141.84;48.23;22491.38;4878711;29;20191;-50
2022/08/18 07:56:41;;;;;;;15.73;13.80;;;25.30;99.90;;;-141.84;47.08;22578.81;4877905;29;20227;-47
2022/08/18 07:59:18;;;;;;;15.63;13.98;;;25.50;99.90;;;-141.84;47.26;22554.41;4878069;29;20233;-48
2022/08/18 08:01:55;;;;;;;12.60;11.50;;;25.60;99.90;;;-141.84;46.83;22623.56;4877926;29;20318;-50
2022/08/18 08:04:42;;;;;;;15.13;12.77;;;25.70;99.90;;;-141.84;46.29;22684.59;4878080;29;20238;-48
2022/08/18 08:07:16;;;;;;;17.52;15.68;;;25.90;99.90;;;-141.84;46.48;22658.16;4878259;29;20673;-54
2022/08/18 08:10:18;;;;;;;14.85;13.27;;;26.00;99.90;;;-141.84;46.97;22617.47;4877255;29;20723;-51
2022/08/18 08:13:01;;;;;;;16.35;14.77;;;25.70;99.90;;;-141.84;47.33;22601.19;4878317;29;20231;-53
2022/08/18 08:15:52;;;;;;;14.52;13.10;;;25.70;99.90;;;-141.84;47.38;22611.38;4876995;29;20302;-49
2022/08/18 08:18:36;;;;;;;16.55;13.05;;;25.70;99.90;;;-141.84;47.65;22578.81;4877899;29;20321;-48
2022/08/18 08:21:14;;;;;;;17.40;14.82;;;25.60;99.90;;;-141.84;47.46;22589.00;4877702;29;20188;-47
2022/08/18 08:23:54;;;;;;;21.83;15.73;;;25.70;99.90;;;-141.84;47.26;22576.78;4877841;29;20234;-53
2022/08/18 08:26:44;;;;;;;17.70;15.77;;;25.60;99.90;;;-141.84;47.33;22546.28;4877286;29;20237;-48
2022/08/18 08:29:46;;;;;;;17.90;14.40;;;25.60;99.90;;;-141.84;46.62;22680.53;4877381;29;20231;-51
2022/08/18 08:32:31;;;;;;;16.77;15.18;;;25.80;99.90;;;-141.84;45.91;22751.69;4877856;29;20714;-50
2022/08/18 08:35:08;;;;;;;15.68;13.10;;;26.00;99.90;;;-141.84;45.58;22847.28;4877583;29;20318;-49
2022/08/18 08:38:02;;;;;;;17.88;16.02;;;26.20;99.90;;;-141.84;44.79;22881.88;4877543;29;20235;-49
2022/08/18 08:41:02;;;;;;;14.40;13.07;;;26.40;99.90;;;-141.84;44.77;22879.84;4876994;29;20254;-48
2022/08/18 08:43:38;;;;;;;16.92;15.23;;;26.50;99.90;;;-141.84;45.27;22837.13;4877667;29;20359;-47
2022/08/18 08:46:15;;;;;;;15.13;13.68;;;26.50;99.90;;;-141.84;45.36;22778.16;4877595;29;20227;-51
2022/08/18 08:48:53;;;;;;;16.48;13.75;;;26.40;99.90;;;-141.84;45.98;22778.16;4877432;29;20231;-51
2022/08/18 08:51:35;;;;;;;15.85;14.35;;;26.40;99.90;;;-141.84;44.99;22851.38;4877769;29;20235;-47
2022/08/18 08:54:14;;;;;;;16.77;14.98;;;26.50;99.90;;;-141.84;45.29;22782.22;4877186;29;20195;-49
2022/08/18 08:56:47;;;;;;;15.88;14.13;;;26.30;99.90;;;-141.84;45.86;22761.88;4878010;29;20534;-50
2022/08/18 08:59:20;;;;;;;17.25;15.52;;;26.30;99.90;;;-141.84;45.41;22831.03;4877336;29;20322;-48
2022/08/18 09:02:14;;;;;;;17.35;14.30;;;26.30;99.90;;;-141.84;45.41;22796.44;4877588;29;20259;-50
2022/08/18 09:05:11;;;;;;;17.13;15.35;;;26.30;99.90;;;-141.84;45.49;22814.75;4877009;29;20703;-48
2022/08/18 09:08:20;;;;;;;16.67;13.75;;;26.20;99.90;;;-141.84;45.77;22788.31;4877222;29;20235;-48
2022/08/18 09:11:49;;;;;;;16.38;14.60;;;26.30;99.90;;;-141.84;45.55;22800.50;4874916;29;20258;-48
2022/08/18 09:15:21;;;;;;;18.08;14.88;;;26.30;99.90;;;-141.84;44.64;22934.75;4842823;29;20699;-49
2022/08/18 09:18:29;;;;;;;14.43;13.05;;;26.50;99.90;;;-141.84;45.17;22910.34;4853417;29;20301;-51
2022/08/18 09:21:18;;;;;;;14.40;12.95;;;26.60;99.90;;;-141.84;44.83;22973.41;4862520;29;20243;-51
2022/08/18 09:23:51;;;;;;;16.98;15.30;;;26.70;99.90;;;-141.84;44.04;22997.81;4862651;29;20203;-50
2022/08/18 09:26:41;;;;;;;16.10;14.48;;;26.90;99.90;;;-141.84;44.23;22969.34;4879971;29;20234;-48
2022/08/18 09:29:26;;;;;;;16.88;15.18;;;27.00;99.90;;;-141.84;43.95;23022.22;4880971;29;20259;-48
2022/08/18 09:32:42;;;;;;;15.60;13.98;;;27.00;99.90;;;-141.84;44.14;23066.97;4881108;29;20231;-52
2022/08/18 09:35:36;;;;;;;13.35;12.02;;;27.00;99.90;;;-141.84;44.32;23032.38;4880844;29;20782;-49
2022/08/18 09:44:12;;;;;;;17.33;15.50;;;27.50;99.90;;;-141.84;43.17;23197.16;4880683;29;20323;-52
2022/08/18 09:47:01;;;;;;;17.27;15.60;;;27.50;99.90;;;-141.84;42.97;23211.38;4880515;29;20239;-50
2022/08/18 09:49:49;;;;;;;15.45;13.90;;;27.60;99.90;;;-141.84;42.97;23203.25;4880351;29;20227;-50
2022/08/18 09:52:49;;;;;;;15.32;13.75;;;27.50;99.90;;;-141.84;43.33;23148.34;4880647;29;20235;-48
2022/08/18 09:55:41;;;;;;;12.27;11.02;;;27.50;99.90;;;-141.84;43.87;23189.00;4879908;29;20278;-51
2022/08/18 09:58:55;;;;;;;14.23;12.82;;;27.60;99.90;;;-141.84;42.41;23248.00;4880574;29;20313;-52
2022/08/18 10:01:40;;;;;;;17.05;14.82;;;27.70;99.90;;;-141.84;42.94;23217.50;4880252;29;20235;-51
2022/08/18 10:04:34;;;;;;;13.40;12.10;;;27.60;99.90;;;-141.84;42.60;23178.84;4880378;29;20235;-48
2022/08/18 10:07:32;;;;;;;15.35;13.40;;;27.60;99.90;;;-141.84;42.45;23280.56;4871307;29;20233;-49
2022/08/18 10:10:23;;;;;;;12.73;11.63;;;27.60;99.90;;;-141.84;42.17;23258.19;4879293;29;20235;-50
2022/08/18 10:13:28;;;;;;;11.38;10.18;;;27.70;99.90;;;-141.84;42.73;23302.94;4880236;29;20737;-49
2022/08/18 10:16:16;;;;;;;14.25;10.68;;;27.90;99.90;;;-141.84;43.21;23225.63;4880131;29;20325;-48
2022/08/18 10:19:08;;;;;;;12.68;11.30;;;27.90;99.90;;;-141.84;42.11;23335.47;4880165;29;20227;-46
2022/08/18 10:22:08;;;;;;;14.85;12.15;;;28.20;99.90;;;-141.84;42.23;23319.19;4879975;29;20263;-49
2022/08/18 10:24:46;;;;;;;12.57;11.45;;;28.00;99.90;;;-141.84;42.16;23266.31;4879552;29;20290;-53
2022/08/18 10:27:47;;;;;;;14.48;12.98;;;28.00;99.90;;;-141.84;42.75;23256.13;4880103;29;20198;-53
2022/08/18 10:31:02;;;;;;;11.93;10.73;;;28.10;99.90;;;-141.84;42.31;23296.81;4880048;29;20224;-51
2022/08/18 10:34:03;;;;;;;13.80;12.18;;;28.00;99.90;;;-141.84;42.76;23225.63;4877979;29;20256;-49
2022/08/18 10:36:52;;;;;;;11.27;10.27;;;27.90;99.90;;;-141.84;42.35;23317.16;4879907;29;20309;-47
2022/08/18 10:39:46;;;;;;;13.35;12.02;;;27.90;99.90;;;-141.84;41.94;23382.25;4878473;29;20721;-50
2022/08/18 10:42:25;;;;;;;13.48;12.27;;;28.00;99.90;;;-141.84;41.77;23477.88;4880038;29;20298;-49
2022/08/18 10:45:12;;;;;;;17.15;13.80;;;28.20;99.90;;;-141.84;41.86;23441.25;4880312;29;20260;-49
2022/08/18 10:48:06;;;;;;;16.55;12.32;;;28.40;99.90;;;-141.84;41.98;23402.59;4861274;29;20235;-50
2022/08/18 10:50:57;;;;;;;12.38;11.07;;;28.30;99.90;;;-141.84;42.50;23433.13;4879806;29;20291;-53
2022/08/18 10:53:37;;;;;;;14.85;12.25;;;28.40;99.90;;;-141.84;42.48;23433.13;4861203;29;20216;-45
2022/08/18 10:56:28;;;;;;;15.05;12.82;;;28.40;99.90;;;-141.84;42.30;23296.81;4877519;29;20270;-47
2022/08/18 10:59:11;;;;;;;12.48;11.20;;;28.20;99.90;;;-141.84;43.13;23278.50;4879790;29;20231;-47
2022/08/18 11:02:16;;;;;;;15.20;13.63;;;28.10;99.90;;;-141.84;42.92;23213.44;4879313;29;20739;-48
2022/08/18 11:04:48;;;;;;;20.30;12.52;;;28.00;99.90;;;-141.84;43.95;23123.94;4879501;29;20670;-47